createdAt,value
2018-12-11T00:03:11.493Z,3.69
2018-12-11T00:08:25.050Z,3.75
2018-12-11T00:13:43.093Z,3.74
2018-12-11T00:18:56.273Z,3.74
2018-12-11T00:24:01.874Z,3.83
2018-12-11T00:29:11.275Z,3.80
2018-12-11T00:34:25.166Z,3.82
2018-12-11T00:39:34.573Z,3.78
2018-12-11T00:44:48.465Z,3.80
2018-12-11T00:50:08.937Z,3.79
2018-12-11T01:00:47.365Z,3.86
2018-12-11T01:06:02.574Z,4.03
2018-12-11T01:11:18.202Z,4.08
2018-12-11T01:16:23.201Z,4.10
2018-12-11T01:21:28.242Z,4.07
2018-12-11T01:26:37.658Z,4.05
2018-12-11T01:31:52.362Z,4.05
2018-12-11T01:36:57.644Z,4.06
2018-12-11T01:42:10.798Z,4.17
2018-12-11T01:47:16.270Z,4.11
2018-12-11T01:52:27.352Z,4.14
2018-12-11T01:57:32.700Z,4.05
2018-12-11T02:02:37.766Z,4.09
2018-12-11T02:07:51.675Z,4.06
2018-12-11T02:12:56.921Z,4.07
2018-12-11T02:18:01.642Z,4.06
2018-12-11T02:23:08.642Z,4.04
2018-12-11T02:28:20.833Z,4.09
2018-12-11T02:33:28.705Z,4.07
2018-12-11T02:44:15.451Z,4.12
2018-12-11T02:49:26.126Z,4.12
2018-12-11T02:54:43.076Z,4.03
2018-12-11T02:59:58.569Z,4.06
2018-12-11T03:05:03.865Z,4.09
2018-12-11T03:10:17.421Z,4.03
2018-12-11T03:15:33.237Z,4.08
2018-12-11T03:20:42.576Z,4.12
2018-12-11T03:25:56.486Z,4.13
2018-12-11T03:31:09.833Z,4.05
2018-12-11T03:36:33.953Z,4.13
2018-12-11T03:41:47.470Z,4.09
2018-12-11T03:47:03.297Z,4.13
2018-12-11T03:52:21.405Z,4.11
2018-12-11T03:57:25.921Z,4.04
2018-12-11T04:02:41.312Z,3.99
2018-12-11T04:07:50.855Z,4.01
2018-12-11T04:13:07.941Z,3.99
2018-12-11T04:18:14.805Z,3.87
2018-12-11T04:23:28.626Z,3.98
2018-12-11T04:28:48.439Z,4.00
2018-12-11T04:34:04.134Z,4.00
2018-12-11T04:39:11.063Z,4.00
2018-12-11T04:44:17.106Z,4.00
2018-12-11T04:49:26.698Z,3.95
2018-12-11T04:54:42.734Z,4.00
2018-12-11T04:59:49.833Z,3.90
2018-12-11T05:05:00.485Z,3.85
2018-12-11T05:10:14.961Z,3.73
2018-12-11T05:15:28.987Z,3.73
2018-12-11T05:20:44.481Z,3.74
2018-12-11T05:25:57.707Z,3.73
2018-12-11T05:31:04.451Z,3.73
2018-12-11T05:36:09.121Z,3.70
2018-12-11T05:41:25.470Z,3.76
2018-12-11T05:46:41.730Z,3.84
2018-12-11T05:51:58.194Z,3.75
2018-12-11T05:57:12.017Z,3.68
2018-12-11T06:02:22.562Z,3.68
2018-12-11T06:07:38.212Z,3.68
2018-12-11T06:12:45.274Z,3.69
2018-12-11T06:18:11.195Z,3.67
2018-12-11T06:23:21.721Z,3.77
2018-12-11T06:28:33.395Z,3.64
2018-12-11T06:33:47.177Z,3.62
2018-12-11T06:38:56.263Z,3.64
2018-12-11T06:44:11.446Z,3.68
2018-12-11T06:49:29.036Z,3.72
2018-12-11T06:54:39.643Z,3.69
2018-12-11T06:59:50.467Z,3.72
2018-12-11T07:04:58.437Z,3.77
2018-12-11T07:10:06.185Z,3.66
2018-12-11T07:15:11.238Z,3.65
2018-12-11T07:20:21.070Z,3.66
2018-12-11T07:25:26.262Z,3.65
2018-12-11T07:30:50.201Z,3.68
2018-12-11T07:36:05.960Z,3.73
2018-12-11T07:41:21.550Z,3.74
2018-12-11T07:46:26.595Z,3.68
2018-12-11T07:51:32.359Z,3.67
2018-12-11T07:56:42.717Z,3.64
2018-12-11T08:01:47.557Z,3.72
2018-12-11T08:06:56.690Z,3.63
2018-12-11T08:12:08.271Z,3.67
2018-12-11T08:17:15.202Z,3.64
2018-12-11T08:22:25.432Z,3.71
2018-12-11T08:27:45.059Z,3.69
2018-12-11T08:44:07.311Z,3.73
2018-12-11T08:49:25.166Z,3.81
2018-12-11T08:54:38.667Z,3.86
2018-12-11T09:16:21.935Z,4.10
2018-12-11T09:21:37.330Z,4.18
2018-12-11T09:26:59.014Z,4.16
2018-12-11T09:32:09.374Z,4.18
2018-12-11T09:37:23.940Z,4.20
2018-12-11T09:42:36.270Z,4.18
2018-12-11T09:47:50.469Z,4.26
2018-12-11T09:53:04.141Z,4.36
2018-12-11T09:58:21.476Z,4.43
2018-12-11T10:03:39.552Z,4.55
2018-12-11T10:08:46.560Z,4.58
2018-12-11T10:13:51.344Z,4.54
2018-12-11T10:19:01.713Z,4.55
2018-12-11T10:24:15.274Z,4.48
2018-12-11T10:29:22.788Z,4.58
2018-12-11T10:34:38.537Z,4.53
2018-12-11T10:39:59.652Z,4.48
2018-12-11T10:45:15.985Z,4.44
2018-12-11T10:50:25.984Z,4.44
2018-12-11T11:01:28.672Z,4.32
2018-12-11T11:06:43.209Z,4.31
2018-12-11T11:27:33.304Z,6.67
2018-12-11T12:55:09.603Z,4.41
2018-12-11T13:00:13.075Z,4.33
2018-12-11T13:05:16.601Z,4.26
2018-12-11T13:10:20.169Z,4.11
2018-12-11T13:21:29.492Z,4.73
2018-12-11T13:26:33.048Z,4.56
2018-12-11T13:31:36.720Z,4.47
2018-12-11T13:36:40.156Z,4.43
2018-12-11T13:41:43.568Z,4.38
2018-12-11T13:46:47.420Z,4.37
2018-12-11T13:51:50.860Z,4.38
2018-12-11T13:56:54.592Z,4.48
2018-12-11T14:01:58.273Z,4.50
2018-12-11T14:07:01.772Z,4.42
2018-12-11T14:12:05.336Z,4.36
2018-12-11T14:17:08.772Z,4.27
2018-12-11T14:22:12.475Z,4.23
2018-12-11T14:27:22.621Z,4.13
2018-12-11T14:32:26.115Z,4.06
2018-12-11T14:37:29.702Z,4.06
2018-12-11T14:42:33.235Z,4.01
2018-12-11T14:47:36.736Z,3.96
2018-12-11T14:52:40.325Z,3.97
2018-12-11T14:57:43.888Z,3.89
2018-12-11T15:02:47.660Z,3.94
2018-12-11T15:07:51.612Z,3.94
2018-12-11T15:12:55.325Z,3.96
2018-12-11T15:17:58.729Z,3.99
2018-12-11T15:23:02.212Z,3.99
2018-12-11T15:28:05.808Z,3.98
2018-12-11T15:33:13.452Z,4.04
2018-12-11T15:38:17.212Z,4.07
2018-12-11T15:43:26.461Z,4.03
2018-12-11T15:48:30.208Z,4.01
2018-12-11T15:53:34.025Z,3.92
2018-12-11T15:58:37.672Z,3.90
2018-12-11T16:03:41.404Z,3.89
2018-12-11T16:08:44.833Z,3.88
2018-12-11T16:14:51.477Z,3.83
2018-12-11T16:19:54.967Z,3.79
2018-12-11T16:24:58.623Z,3.77
2018-12-11T16:30:03.098Z,3.73
2018-12-11T16:35:07.320Z,3.66
2018-12-11T16:40:10.953Z,3.55
2018-12-11T16:45:14.385Z,3.43
2018-12-11T16:50:17.892Z,3.34
2018-12-11T16:55:21.421Z,3.18
2018-12-11T17:00:24.907Z,3.07
2018-12-11T17:05:28.545Z,2.97
2018-12-11T17:10:32.116Z,2.98
2018-12-11T17:15:35.711Z,2.96
2018-12-11T17:20:39.496Z,2.94
2018-12-11T17:25:42.908Z,2.94
2018-12-11T17:30:46.422Z,2.95
2018-12-11T17:35:49.956Z,2.97
2018-12-11T17:40:53.416Z,3.01
2018-12-11T17:45:56.976Z,3.01
2018-12-11T17:51:00.741Z,3.02
2018-12-11T17:56:04.267Z,3.01
2018-12-11T18:01:08.599Z,3.06
2018-12-11T18:06:12.472Z,3.04
2018-12-11T18:11:15.933Z,3.06
2018-12-11T18:16:19.346Z,3.07
2018-12-11T18:21:22.768Z,3.08
2018-12-11T18:26:26.315Z,3.09
2018-12-11T18:31:29.720Z,3.12
2018-12-11T18:36:33.247Z,3.13
2018-12-11T18:41:36.808Z,3.17
2018-12-11T18:46:40.463Z,3.17
2018-12-11T18:51:43.876Z,3.19
2018-12-11T18:56:47.448Z,3.22
2018-12-11T19:01:51.015Z,3.24
2018-12-11T19:06:54.673Z,3.22
2018-12-11T19:11:58.108Z,3.29
2018-12-11T19:17:01.779Z,3.31
2018-12-11T19:22:05.236Z,3.30
2018-12-11T19:27:08.672Z,3.28
2018-12-11T19:32:12.372Z,3.25
2018-12-11T19:37:16.449Z,3.26
2018-12-11T19:42:20.040Z,3.25
2018-12-11T19:47:23.525Z,3.19
2018-12-11T19:52:27.034Z,3.12
2018-12-11T19:57:30.512Z,3.05
2018-12-11T20:02:34.288Z,2.97
2018-12-11T20:07:37.684Z,2.87
2018-12-11T20:12:41.356Z,2.83
2018-12-11T20:17:44.864Z,2.71
2018-12-11T20:22:48.424Z,2.67
2018-12-11T20:27:52.199Z,2.66
2018-12-11T20:32:55.969Z,2.69
2018-12-11T20:38:00.528Z,2.64
2018-12-11T20:43:04.150Z,2.57
2018-12-11T20:48:07.642Z,2.54
2018-12-11T20:53:11.396Z,2.51
2018-12-11T20:58:15.076Z,2.56
2018-12-11T21:03:19.805Z,2.53
2018-12-11T21:08:27.216Z,2.55
2018-12-11T21:13:30.743Z,2.52
2018-12-11T21:18:34.689Z,2.48
2018-12-11T21:23:38.231Z,2.49
2018-12-11T21:28:42.095Z,2.47
2018-12-11T21:33:45.620Z,2.43
2018-12-11T21:38:49.716Z,2.37
2018-12-11T21:43:53.203Z,2.34
2018-12-11T21:48:56.713Z,2.33
2018-12-11T22:09:41.928Z,2.16
2018-12-11T22:14:46.200Z,2.14
2018-12-11T22:25:11.717Z,2.16
2018-12-11T22:30:15.351Z,2.21
2018-12-11T22:35:18.948Z,2.25
2018-12-11T22:40:22.464Z,2.37
2018-12-11T22:45:26.117Z,2.38
2018-12-11T22:50:29.584Z,2.43
2018-12-11T22:55:33.041Z,2.60
2018-12-11T23:00:37.431Z,2.62
2018-12-11T23:05:41.128Z,2.67
2018-12-11T23:10:44.764Z,2.67
2018-12-11T23:15:48.244Z,2.67
2018-12-11T23:20:51.666Z,2.70
2018-12-11T23:25:55.364Z,2.67
2018-12-11T23:30:58.830Z,2.68
2018-12-11T23:36:02.333Z,2.67
2018-12-11T23:41:05.764Z,2.66
2018-12-11T23:46:09.424Z,2.64
2018-12-11T23:51:12.843Z,2.65
2018-12-11T23:56:16.535Z,2.71
